sensor_id;sensor_type;location;lat;lon;timestamp;P1;durP1;ratioP1;P2;durP2;ratioP2
5823;SDS011;2938;52.254;12.988;2022-10-16T00:00:38;3.75;;;3.35;;
5823;SDS011;2938;52.254;12.988;2022-10-16T00:03:04;3.13;;;2.92;;
5823;SDS011;2938;52.254;12.988;2022-10-16T00:05:30;3.28;;;2.97;;
5823;SDS011;2938;52.254;12.988;2022-10-16T00:07:56;4.45;;;3.17;;
5823;SDS011;2938;52.254;12.988;2022-10-16T00:10:21;8.90;;;3.42;;
5823;SDS011;2938;52.254;12.988;2022-10-16T00:12:47;5.18;;;2.80;;
5823;SDS011;2938;52.254;12.988;2022-10-16T00:15:12;3.17;;;2.90;;
5823;SDS011;2938;52.254;12.988;2022-10-16T00:17:43;3.78;;;2.80;;
5823;SDS011;2938;52.254;12.988;2022-10-16T00:20:08;3.08;;;2.78;;
5823;SDS011;2938;52.254;12.988;2022-10-16T00:22:33;3.20;;;2.40;;
5823;SDS011;2938;52.254;12.988;2022-10-16T00:24:59;3.03;;;2.20;;
5823;SDS011;2938;52.254;12.988;2022-10-16T00:27:24;3.40;;;2.88;;
5823;SDS011;2938;52.254;12.988;2022-10-16T00:29:50;5.03;;;2.80;;
5823;SDS011;2938;52.254;12.988;2022-10-16T00:32:16;3.83;;;3.33;;
5823;SDS011;2938;52.254;12.988;2022-10-16T00:34:42;17.02;;;3.60;;
5823;SDS011;2938;52.254;12.988;2022-10-16T00:37:07;5.93;;;3.03;;
5823;SDS011;2938;52.254;12.988;2022-10-16T00:39:32;6.03;;;2.85;;
5823;SDS011;2938;52.254;12.988;2022-10-16T00:41:58;3.30;;;2.97;;
5823;SDS011;2938;52.254;12.988;2022-10-16T00:47:13;3.25;;;2.78;;
5823;SDS011;2938;52.254;12.988;2022-10-16T00:49:47;3.35;;;2.90;;
5823;SDS011;2938;52.254;12.988;2022-10-16T00:52:15;4.28;;;2.90;;
5823;SDS011;2938;52.254;12.988;2022-10-16T00:54:41;4.75;;;2.92;;
5823;SDS011;2938;52.254;12.988;2022-10-16T00:57:07;3.53;;;2.40;;
5823;SDS011;2938;52.254;12.988;2022-10-16T00:59:36;6.22;;;3.28;;
5823;SDS011;2938;52.254;12.988;2022-10-16T01:02:04;3.40;;;2.67;;
5823;SDS011;2938;52.254;12.988;2022-10-16T01:04:32;2.03;;;1.92;;
5823;SDS011;2938;52.254;12.988;2022-10-16T01:07:04;3.45;;;2.72;;
5823;SDS011;2938;52.254;12.988;2022-10-16T01:09:54;4.95;;;2.90;;
5823;SDS011;2938;52.254;12.988;2022-10-16T01:12:41;4.70;;;2.13;;
5823;SDS011;2938;52.254;12.988;2022-10-16T01:18:21;6.45;;;3.15;;
5823;SDS011;2938;52.254;12.988;2022-10-16T01:20:58;3.15;;;2.78;;
5823;SDS011;2938;52.254;12.988;2022-10-16T01:26:47;3.70;;;2.17;;
5823;SDS011;2938;52.254;12.988;2022-10-16T01:31:58;2.67;;;2.47;;
5823;SDS011;2938;52.254;12.988;2022-10-16T01:34:28;4.57;;;3.00;;
5823;SDS011;2938;52.254;12.988;2022-10-16T01:37:00;3.47;;;3.17;;
5823;SDS011;2938;52.254;12.988;2022-10-16T01:39:30;3.00;;;2.80;;
5823;SDS011;2938;52.254;12.988;2022-10-16T01:42:01;3.60;;;3.30;;
5823;SDS011;2938;52.254;12.988;2022-10-16T01:44:32;3.50;;;3.03;;
5823;SDS011;2938;52.254;12.988;2022-10-16T01:46:58;3.55;;;3.25;;
5823;SDS011;2938;52.254;12.988;2022-10-16T01:49:25;4.60;;;3.22;;
5823;SDS011;2938;52.254;12.988;2022-10-16T01:51:52;6.28;;;3.80;;
5823;SDS011;2938;52.254;12.988;2022-10-16T01:54:20;3.92;;;3.10;;
5823;SDS011;2938;52.254;12.988;2022-10-16T01:56:47;5.15;;;3.15;;
5823;SDS011;2938;52.254;12.988;2022-10-16T01:59:14;4.07;;;3.67;;
5823;SDS011;2938;52.254;12.988;2022-10-16T02:01:42;3.90;;;3.50;;
5823;SDS011;2938;52.254;12.988;2022-10-16T02:04:16;4.22;;;3.30;;
5823;SDS011;2938;52.254;12.988;2022-10-16T02:06:45;2.60;;;2.40;;
5823;SDS011;2938;52.254;12.988;2022-10-16T02:09:10;3.50;;;2.50;;
5823;SDS011;2938;52.254;12.988;2022-10-16T02:11:36;5.47;;;2.95;;
5823;SDS011;2938;52.254;12.988;2022-10-16T02:14:02;5.70;;;2.75;;
5823;SDS011;2938;52.254;12.988;2022-10-16T02:16:34;5.18;;;2.70;;
5823;SDS011;2938;52.254;12.988;2022-10-16T02:19:00;5.75;;;3.53;;
5823;SDS011;2938;52.254;12.988;2022-10-16T02:21:26;3.33;;;2.65;;
5823;SDS011;2938;52.254;12.988;2022-10-16T02:23:59;2.50;;;2.30;;
5823;SDS011;2938;52.254;12.988;2022-10-16T02:26:29;3.55;;;3.25;;
5823;SDS011;2938;52.254;12.988;2022-10-16T02:29:02;3.35;;;2.58;;
5823;SDS011;2938;52.254;12.988;2022-10-16T02:31:31;3.05;;;2.70;;
5823;SDS011;2938;52.254;12.988;2022-10-16T02:33:59;4.82;;;2.90;;
5823;SDS011;2938;52.254;12.988;2022-10-16T02:36:25;2.88;;;2.67;;
5823;SDS011;2938;52.254;12.988;2022-10-16T02:38:51;3.40;;;3.10;;
5823;SDS011;2938;52.254;12.988;2022-10-16T02:41:19;4.80;;;3.35;;
5823;SDS011;2938;52.254;12.988;2022-10-16T02:43:46;4.88;;;2.72;;
5823;SDS011;2938;52.254;12.988;2022-10-16T02:46:11;4.03;;;2.35;;
5823;SDS011;2938;52.254;12.988;2022-10-16T02:48:36;4.90;;;3.10;;
5823;SDS011;2938;52.254;12.988;2022-10-16T02:51:02;2.95;;;2.60;;
5823;SDS011;2938;52.254;12.988;2022-10-16T02:53:27;5.32;;;3.95;;
5823;SDS011;2938;52.254;12.988;2022-10-16T02:55:52;5.00;;;2.63;;
5823;SDS011;2938;52.254;12.988;2022-10-16T02:58:18;3.58;;;3.28;;
5823;SDS011;2938;52.254;12.988;2022-10-16T03:00:44;4.03;;;3.33;;
5823;SDS011;2938;52.254;12.988;2022-10-16T03:03:09;2.85;;;2.65;;
5823;SDS011;2938;52.254;12.988;2022-10-16T03:05:34;2.55;;;2.35;;
5823;SDS011;2938;52.254;12.988;2022-10-16T03:08:00;3.03;;;2.72;;
5823;SDS011;2938;52.254;12.988;2022-10-16T03:10:25;3.40;;;2.90;;
5823;SDS011;2938;52.254;12.988;2022-10-16T03:12:51;3.05;;;2.75;;
5823;SDS011;2938;52.254;12.988;2022-10-16T03:15:16;2.58;;;2.40;;
5823;SDS011;2938;52.254;12.988;2022-10-16T03:17:42;2.80;;;2.60;;
5823;SDS011;2938;52.254;12.988;2022-10-16T03:20:08;27.60;;;15.35;;
5823;SDS011;2938;52.254;12.988;2022-10-16T03:22:33;6.28;;;5.28;;
5823;SDS011;2938;52.254;12.988;2022-10-16T03:24:58;2.83;;;2.53;;
5823;SDS011;2938;52.254;12.988;2022-10-16T03:27:24;3.15;;;2.88;;
5823;SDS011;2938;52.254;12.988;2022-10-16T03:29:50;3.38;;;2.35;;
5823;SDS011;2938;52.254;12.988;2022-10-16T03:32:15;2.80;;;2.63;;
5823;SDS011;2938;52.254;12.988;2022-10-16T03:34:40;5.45;;;2.40;;
5823;SDS011;2938;52.254;12.988;2022-10-16T03:37:06;7.70;;;3.53;;
5823;SDS011;2938;52.254;12.988;2022-10-16T03:39:31;3.65;;;3.35;;
5823;SDS011;2938;52.254;12.988;2022-10-16T03:41:56;4.50;;;2.45;;
5823;SDS011;2938;52.254;12.988;2022-10-16T03:44:22;4.50;;;3.45;;
5823;SDS011;2938;52.254;12.988;2022-10-16T03:46:47;2.97;;;2.78;;
5823;SDS011;2938;52.254;12.988;2022-10-16T03:49:12;3.90;;;3.40;;
5823;SDS011;2938;52.254;12.988;2022-10-16T03:51:38;4.68;;;3.95;;
5823;SDS011;2938;52.254;12.988;2022-10-16T03:54:03;6.20;;;3.28;;
5823;SDS011;2938;52.254;12.988;2022-10-16T03:56:28;4.07;;;3.60;;
5823;SDS011;2938;52.254;12.988;2022-10-16T03:58:53;3.70;;;3.40;;
5823;SDS011;2938;52.254;12.988;2022-10-16T04:01:19;7.07;;;3.65;;
5823;SDS011;2938;52.254;12.988;2022-10-16T04:03:44;3.45;;;2.38;;
5823;SDS011;2938;52.254;12.988;2022-10-16T04:06:09;3.78;;;2.58;;
5823;SDS011;2938;52.254;12.988;2022-10-16T04:08:35;5.65;;;2.80;;
5823;SDS011;2938;52.254;12.988;2022-10-16T04:11:01;5.93;;;2.80;;
5823;SDS011;2938;52.254;12.988;2022-10-16T04:13:27;3.70;;;3.40;;
5823;SDS011;2938;52.254;12.988;2022-10-16T04:15:52;7.82;;;2.50;;
5823;SDS011;2938;52.254;12.988;2022-10-16T04:18:18;5.85;;;2.67;;
5823;SDS011;2938;52.254;12.988;2022-10-16T04:20:43;3.00;;;2.70;;
5823;SDS011;2938;52.254;12.988;2022-10-16T04:23:08;6.75;;;2.88;;
5823;SDS011;2938;52.254;12.988;2022-10-16T04:25:34;7.10;;;2.85;;
5823;SDS011;2938;52.254;12.988;2022-10-16T04:27:59;6.22;;;3.70;;
5823;SDS011;2938;52.254;12.988;2022-10-16T04:30:24;4.45;;;2.75;;
5823;SDS011;2938;52.254;12.988;2022-10-16T04:32:50;4.80;;;3.58;;
5823;SDS011;2938;52.254;12.988;2022-10-16T04:35:20;4.03;;;3.63;;
5823;SDS011;2938;52.254;12.988;2022-10-16T04:37:46;3.40;;;3.13;;
5823;SDS011;2938;52.254;12.988;2022-10-16T04:40:11;3.40;;;3.05;;
5823;SDS011;2938;52.254;12.988;2022-10-16T04:42:37;3.50;;;3.20;;
5823;SDS011;2938;52.254;12.988;2022-10-16T04:45:03;4.78;;;4.22;;
5823;SDS011;2938;52.254;12.988;2022-10-16T04:47:29;2.85;;;2.60;;
5823;SDS011;2938;52.254;12.988;2022-10-16T04:49:55;4.35;;;2.78;;
5823;SDS011;2938;52.254;12.988;2022-10-16T04:52:21;6.70;;;3.50;;
5823;SDS011;2938;52.254;12.988;2022-10-16T04:54:49;5.30;;;3.58;;
5823;SDS011;2938;52.254;12.988;2022-10-16T04:57:15;3.55;;;2.95;;
5823;SDS011;2938;52.254;12.988;2022-10-16T04:59:40;2.72;;;2.53;;
5823;SDS011;2938;52.254;12.988;2022-10-16T05:02:05;3.53;;;3.22;;
5823;SDS011;2938;52.254;12.988;2022-10-16T05:04:31;7.03;;;3.17;;
5823;SDS011;2938;52.254;12.988;2022-10-16T05:06:56;9.85;;;3.55;;
5823;SDS011;2938;52.254;12.988;2022-10-16T05:09:21;4.72;;;3.33;;
5823;SDS011;2938;52.254;12.988;2022-10-16T05:11:47;3.67;;;3.25;;
5823;SDS011;2938;52.254;12.988;2022-10-16T05:14:12;3.78;;;3.40;;
5823;SDS011;2938;52.254;12.988;2022-10-16T05:16:37;3.40;;;3.10;;
5823;SDS011;2938;52.254;12.988;2022-10-16T05:19:03;5.60;;;3.17;;
5823;SDS011;2938;52.254;12.988;2022-10-16T05:21:28;3.95;;;3.45;;
5823;SDS011;2938;52.254;12.988;2022-10-16T05:23:53;3.40;;;2.95;;
5823;SDS011;2938;52.254;12.988;2022-10-16T05:26:20;2.70;;;2.45;;
5823;SDS011;2938;52.254;12.988;2022-10-16T05:28:45;3.90;;;2.60;;
5823;SDS011;2938;52.254;12.988;2022-10-16T05:31:13;3.63;;;2.83;;
5823;SDS011;2938;52.254;12.988;2022-10-16T05:33:39;5.13;;;2.50;;
5823;SDS011;2938;52.254;12.988;2022-10-16T05:36:05;4.22;;;3.00;;
5823;SDS011;2938;52.254;12.988;2022-10-16T05:38:32;4.82;;;3.72;;
5823;SDS011;2938;52.254;12.988;2022-10-16T05:40:58;10.00;;;4.63;;
5823;SDS011;2938;52.254;12.988;2022-10-16T05:43:23;4.70;;;3.67;;
5823;SDS011;2938;52.254;12.988;2022-10-16T05:45:58;4.22;;;3.78;;
5823;SDS011;2938;52.254;12.988;2022-10-16T05:48:25;8.52;;;4.35;;
5823;SDS011;2938;52.254;12.988;2022-10-16T05:51:01;5.45;;;4.15;;
5823;SDS011;2938;52.254;12.988;2022-10-16T05:53:29;6.65;;;4.95;;
5823;SDS011;2938;52.254;12.988;2022-10-16T05:55:55;5.63;;;5.10;;
5823;SDS011;2938;52.254;12.988;2022-10-16T05:58:21;5.03;;;3.83;;
5823;SDS011;2938;52.254;12.988;2022-10-16T06:00:54;6.30;;;4.20;;
5823;SDS011;2938;52.254;12.988;2022-10-16T06:03:22;6.50;;;4.78;;
5823;SDS011;2938;52.254;12.988;2022-10-16T06:05:48;6.68;;;4.55;;
5823;SDS011;2938;52.254;12.988;2022-10-16T06:08:13;5.57;;;5.03;;
5823;SDS011;2938;52.254;12.988;2022-10-16T06:10:38;7.93;;;3.55;;
5823;SDS011;2938;52.254;12.988;2022-10-16T06:13:04;4.15;;;3.75;;
5823;SDS011;2938;52.254;12.988;2022-10-16T06:15:29;9.32;;;3.63;;
5823;SDS011;2938;52.254;12.988;2022-10-16T06:17:54;4.93;;;3.17;;
5823;SDS011;2938;52.254;12.988;2022-10-16T06:20:20;6.18;;;3.53;;
5823;SDS011;2938;52.254;12.988;2022-10-16T06:22:45;6.53;;;3.72;;
5823;SDS011;2938;52.254;12.988;2022-10-16T06:25:10;3.65;;;3.00;;
5823;SDS011;2938;52.254;12.988;2022-10-16T06:27:35;4.45;;;3.78;;
5823;SDS011;2938;52.254;12.988;2022-10-16T06:30:01;10.85;;;3.97;;
5823;SDS011;2938;52.254;12.988;2022-10-16T06:32:28;4.30;;;3.15;;
5823;SDS011;2938;52.254;12.988;2022-10-16T06:34:53;12.32;;;3.75;;
5823;SDS011;2938;52.254;12.988;2022-10-16T06:37:19;5.47;;;4.00;;
5823;SDS011;2938;52.254;12.988;2022-10-16T06:39:44;5.72;;;2.78;;
5823;SDS011;2938;52.254;12.988;2022-10-16T06:42:09;9.75;;;4.35;;
5823;SDS011;2938;52.254;12.988;2022-10-16T06:44:35;6.40;;;3.85;;
5823;SDS011;2938;52.254;12.988;2022-10-16T06:47:00;4.97;;;3.28;;
5823;SDS011;2938;52.254;12.988;2022-10-16T06:49:25;4.43;;;3.67;;
5823;SDS011;2938;52.254;12.988;2022-10-16T06:51:51;6.03;;;3.72;;
5823;SDS011;2938;52.254;12.988;2022-10-16T06:54:16;10.35;;;4.50;;
5823;SDS011;2938;52.254;12.988;2022-10-16T06:56:42;7.05;;;3.95;;
5823;SDS011;2938;52.254;12.988;2022-10-16T06:59:08;3.85;;;3.10;;
5823;SDS011;2938;52.254;12.988;2022-10-16T07:01:33;5.45;;;3.85;;
5823;SDS011;2938;52.254;12.988;2022-10-16T07:03:58;4.18;;;3.50;;
5823;SDS011;2938;52.254;12.988;2022-10-16T07:06:25;3.67;;;3.38;;
5823;SDS011;2938;52.254;12.988;2022-10-16T07:08:51;3.10;;;2.90;;
5823;SDS011;2938;52.254;12.988;2022-10-16T07:11:21;4.78;;;3.70;;
5823;SDS011;2938;52.254;12.988;2022-10-16T07:13:48;5.38;;;3.08;;
5823;SDS011;2938;52.254;12.988;2022-10-16T07:16:15;7.38;;;3.53;;
5823;SDS011;2938;52.254;12.988;2022-10-16T07:18:44;2.63;;;2.40;;
5823;SDS011;2938;52.254;12.988;2022-10-16T07:21:12;3.28;;;1.92;;
5823;SDS011;2938;52.254;12.988;2022-10-16T07:23:39;1.50;;;1.23;;
5823;SDS011;2938;52.254;12.988;2022-10-16T07:26:05;2.45;;;1.23;;
5823;SDS011;2938;52.254;12.988;2022-10-16T07:28:30;2.13;;;1.90;;
5823;SDS011;2938;52.254;12.988;2022-10-16T07:30:59;5.57;;;1.73;;
5823;SDS011;2938;52.254;12.988;2022-10-16T07:33:26;2.72;;;1.60;;
5823;SDS011;2938;52.254;12.988;2022-10-16T07:35:51;1.83;;;1.60;;
5823;SDS011;2938;52.254;12.988;2022-10-16T07:38:18;2.00;;;1.80;;
5823;SDS011;2938;52.254;12.988;2022-10-16T07:40:43;5.50;;;2.03;;
5823;SDS011;2938;52.254;12.988;2022-10-16T07:43:08;3.42;;;1.95;;
5823;SDS011;2938;52.254;12.988;2022-10-16T07:45:34;1.58;;;1.48;;
5823;SDS011;2938;52.254;12.988;2022-10-16T07:47:59;2.40;;;1.70;;
5823;SDS011;2938;52.254;12.988;2022-10-16T07:50:24;3.92;;;1.50;;
5823;SDS011;2938;52.254;12.988;2022-10-16T07:52:49;4.22;;;1.70;;
5823;SDS011;2938;52.254;12.988;2022-10-16T07:55:15;3.55;;;1.42;;
5823;SDS011;2938;52.254;12.988;2022-10-16T07:57:40;1.63;;;1.50;;
5823;SDS011;2938;52.254;12.988;2022-10-16T08:00:06;5.45;;;1.80;;
5823;SDS011;2938;52.254;12.988;2022-10-16T08:02:31;5.78;;;1.38;;
5823;SDS011;2938;52.254;12.988;2022-10-16T08:04:57;5.75;;;1.95;;
5823;SDS011;2938;52.254;12.988;2022-10-16T08:07:22;4.00;;;1.67;;
5823;SDS011;2938;52.254;12.988;2022-10-16T08:09:50;0.95;;;0.93;;
5823;SDS011;2938;52.254;12.988;2022-10-16T08:12:16;1.60;;;1.50;;
5823;SDS011;2938;52.254;12.988;2022-10-16T08:14:42;2.30;;;1.63;;
5823;SDS011;2938;52.254;12.988;2022-10-16T08:17:07;1.65;;;1.48;;
5823;SDS011;2938;52.254;12.988;2022-10-16T08:19:32;2.65;;;1.52;;
5823;SDS011;2938;52.254;12.988;2022-10-16T08:21:59;3.05;;;1.75;;
5823;SDS011;2938;52.254;12.988;2022-10-16T08:24:24;5.53;;;2.47;;
5823;SDS011;2938;52.254;12.988;2022-10-16T08:26:53;3.80;;;1.67;;
5823;SDS011;2938;52.254;12.988;2022-10-16T08:29:18;1.95;;;1.77;;
5823;SDS011;2938;52.254;12.988;2022-10-16T08:31:43;2.25;;;1.40;;
5823;SDS011;2938;52.254;12.988;2022-10-16T08:34:09;3.92;;;1.50;;
5823;SDS011;2938;52.254;12.988;2022-10-16T08:36:34;1.67;;;1.30;;
5823;SDS011;2938;52.254;12.988;2022-10-16T08:38:59;1.90;;;1.45;;
5823;SDS011;2938;52.254;12.988;2022-10-16T08:41:39;4.72;;;1.52;;
5823;SDS011;2938;52.254;12.988;2022-10-16T08:49:33;4.25;;;1.30;;
5823;SDS011;2938;52.254;12.988;2022-10-16T08:51:58;1.63;;;1.10;;
5823;SDS011;2938;52.254;12.988;2022-10-16T08:57:04;2.92;;;1.38;;
5823;SDS011;2938;52.254;12.988;2022-10-16T08:59:34;3.47;;;1.42;;
5823;SDS011;2938;52.254;12.988;2022-10-16T09:01:59;1.20;;;1.10;;
5823;SDS011;2938;52.254;12.988;2022-10-16T09:10:11;1.80;;;1.10;;
5823;SDS011;2938;52.254;12.988;2022-10-16T09:12:58;2.20;;;1.30;;
5823;SDS011;2938;52.254;12.988;2022-10-16T09:15:32;3.30;;;2.03;;
5823;SDS011;2938;52.254;12.988;2022-10-16T09:23:32;2.90;;;1.35;;
5823;SDS011;2938;52.254;12.988;2022-10-16T09:25:59;2.35;;;1.23;;
5823;SDS011;2938;52.254;12.988;2022-10-16T09:28:25;4.28;;;1.48;;
5823;SDS011;2938;52.254;12.988;2022-10-16T09:30:50;1.35;;;1.25;;
5823;SDS011;2938;52.254;12.988;2022-10-16T09:33:17;2.92;;;1.20;;
5823;SDS011;2938;52.254;12.988;2022-10-16T09:35:44;4.60;;;1.25;;
5823;SDS011;2938;52.254;12.988;2022-10-16T09:38:24;1.83;;;1.73;;
5823;SDS011;2938;52.254;12.988;2022-10-16T09:40:58;2.05;;;1.10;;
5823;SDS011;2938;52.254;12.988;2022-10-16T09:43:26;4.93;;;1.10;;
5823;SDS011;2938;52.254;12.988;2022-10-16T09:49:02;2.20;;;2.00;;
5823;SDS011;2938;52.254;12.988;2022-10-16T09:51:33;2.35;;;1.10;;
5823;SDS011;2938;52.254;12.988;2022-10-16T09:56:34;4.43;;;1.30;;
5823;SDS011;2938;52.254;12.988;2022-10-16T09:59:14;0.90;;;0.90;;
5823;SDS011;2938;52.254;12.988;2022-10-16T10:01:41;3.40;;;0.65;;
5823;SDS011;2938;52.254;12.988;2022-10-16T10:04:09;4.65;;;1.52;;
5823;SDS011;2938;52.254;12.988;2022-10-16T10:06:36;3.67;;;0.85;;
5823;SDS011;2938;52.254;12.988;2022-10-16T10:09:06;2.08;;;1.30;;
5823;SDS011;2938;52.254;12.988;2022-10-16T10:11:51;2.35;;;1.02;;
5823;SDS011;2938;52.254;12.988;2022-10-16T10:14:35;3.20;;;0.93;;
5823;SDS011;2938;52.254;12.988;2022-10-16T10:19:37;1.85;;;1.00;;
5823;SDS011;2938;52.254;12.988;2022-10-16T10:22:17;2.08;;;0.80;;
5823;SDS011;2938;52.254;12.988;2022-10-16T10:24:44;1.17;;;1.07;;
5823;SDS011;2938;52.254;12.988;2022-10-16T10:27:19;0.80;;;0.80;;
5823;SDS011;2938;52.254;12.988;2022-10-16T10:29:47;8.07;;;1.80;;
5823;SDS011;2938;52.254;12.988;2022-10-16T10:37:55;4.47;;;1.00;;
5823;SDS011;2938;52.254;12.988;2022-10-16T10:43:09;1.13;;;0.70;;
5823;SDS011;2938;52.254;12.988;2022-10-16T10:48:21;1.55;;;0.90;;
5823;SDS011;2938;52.254;12.988;2022-10-16T10:50:54;1.10;;;1.00;;
5823;SDS011;2938;52.254;12.988;2022-10-16T11:07:27;1.35;;;1.20;;
5823;SDS011;2938;52.254;12.988;2022-10-16T11:09:42;2.90;;;1.17;;
5823;SDS011;2938;52.254;12.988;2022-10-16T11:12:12;2.13;;;0.85;;
5823;SDS011;2938;52.254;12.988;2022-10-16T11:17:15;7.38;;;1.60;;
5823;SDS011;2938;52.254;12.988;2022-10-16T11:27:39;1.07;;;0.97;;
5823;SDS011;2938;52.254;12.988;2022-10-16T11:30:29;2.95;;;0.60;;
5823;SDS011;2938;52.254;12.988;2022-10-16T11:33:03;0.70;;;0.70;;
5823;SDS011;2938;52.254;12.988;2022-10-16T11:41:22;2.03;;;0.93;;
5823;SDS011;2938;52.254;12.988;2022-10-16T11:46:49;5.95;;;1.85;;
5823;SDS011;2938;52.254;12.988;2022-10-16T11:49:21;6.25;;;0.60;;
5823;SDS011;2938;52.254;12.988;2022-10-16T11:52:00;1.50;;;0.75;;
5823;SDS011;2938;52.254;12.988;2022-10-16T11:57:27;6.40;;;1.35;;
5823;SDS011;2938;52.254;12.988;2022-10-16T12:02:58;2.13;;;0.70;;
5823;SDS011;2938;52.254;12.988;2022-10-16T12:05:46;2.33;;;0.60;;
5823;SDS011;2938;52.254;12.988;2022-10-16T12:08:15;2.47;;;0.85;;
5823;SDS011;2938;52.254;12.988;2022-10-16T12:10:45;1.08;;;0.90;;
5823;SDS011;2938;52.254;12.988;2022-10-16T12:18:35;1.63;;;0.60;;
5823;SDS011;2938;52.254;12.988;2022-10-16T12:21:01;1.25;;;0.80;;
5823;SDS011;2938;52.254;12.988;2022-10-16T12:23:38;2.40;;;1.10;;
5823;SDS011;2938;52.254;12.988;2022-10-16T12:26:11;1.58;;;0.70;;
5823;SDS011;2938;52.254;12.988;2022-10-16T12:28:36;2.20;;;0.70;;
5823;SDS011;2938;52.254;12.988;2022-10-16T12:31:03;3.00;;;0.90;;
5823;SDS011;2938;52.254;12.988;2022-10-16T12:33:34;8.98;;;1.58;;
5823;SDS011;2938;52.254;12.988;2022-10-16T12:36:01;1.63;;;1.00;;
5823;SDS011;2938;52.254;12.988;2022-10-16T12:38:51;1.83;;;0.95;;
5823;SDS011;2938;52.254;12.988;2022-10-16T12:41:59;2.92;;;0.63;;
5823;SDS011;2938;52.254;12.988;2022-10-16T12:44:24;1.23;;;1.13;;
5823;SDS011;2938;52.254;12.988;2022-10-16T12:46:52;6.40;;;1.08;;
5823;SDS011;2938;52.254;12.988;2022-10-16T12:51:55;1.83;;;1.00;;
5823;SDS011;2938;52.254;12.988;2022-10-16T12:54:22;11.93;;;1.25;;
5823;SDS011;2938;52.254;12.988;2022-10-16T12:56:58;5.55;;;1.40;;
5823;SDS011;2938;52.254;12.988;2022-10-16T13:02:26;0.75;;;0.75;;
5823;SDS011;2938;52.254;12.988;2022-10-16T13:08:15;1.17;;;0.80;;
5823;SDS011;2938;52.254;12.988;2022-10-16T13:11:03;1.17;;;0.90;;
5823;SDS011;2938;52.254;12.988;2022-10-16T13:13:36;1.05;;;0.73;;
5823;SDS011;2938;52.254;12.988;2022-10-16T13:16:17;3.55;;;0.90;;
5823;SDS011;2938;52.254;12.988;2022-10-16T13:19:16;1.48;;;0.77;;
5823;SDS011;2938;52.254;12.988;2022-10-16T13:24:39;2.05;;;0.80;;
5823;SDS011;2938;52.254;12.988;2022-10-16T13:27:15;2.95;;;1.15;;
5823;SDS011;2938;52.254;12.988;2022-10-16T13:29:48;0.63;;;0.63;;
5823;SDS011;2938;52.254;12.988;2022-10-16T13:32:17;0.50;;;0.50;;
5823;SDS011;2938;52.254;12.988;2022-10-16T13:34:45;2.92;;;0.63;;
5823;SDS011;2938;52.254;12.988;2022-10-16T13:37:18;0.73;;;0.73;;
5823;SDS011;2938;52.254;12.988;2022-10-16T13:39:44;1.65;;;0.85;;
5823;SDS011;2938;52.254;12.988;2022-10-16T13:42:11;4.18;;;0.80;;
5823;SDS011;2938;52.254;12.988;2022-10-16T13:47:15;1.95;;;0.73;;
5823;SDS011;2938;52.254;12.988;2022-10-16T13:50:05;3.58;;;1.02;;
5823;SDS011;2938;52.254;12.988;2022-10-16T13:52:34;2.58;;;0.90;;
5823;SDS011;2938;52.254;12.988;2022-10-16T13:54:59;3.63;;;0.70;;
5823;SDS011;2938;52.254;12.988;2022-10-16T13:57:25;4.72;;;0.82;;
5823;SDS011;2938;52.254;12.988;2022-10-16T13:59:50;1.85;;;1.20;;
5823;SDS011;2938;52.254;12.988;2022-10-16T14:04:51;5.15;;;0.80;;
5823;SDS011;2938;52.254;12.988;2022-10-16T14:07:24;2.72;;;0.80;;
5823;SDS011;2938;52.254;12.988;2022-10-16T14:09:51;2.50;;;0.85;;
5823;SDS011;2938;52.254;12.988;2022-10-16T14:12:17;5.13;;;1.48;;
5823;SDS011;2938;52.254;12.988;2022-10-16T14:14:44;2.42;;;0.88;;
5823;SDS011;2938;52.254;12.988;2022-10-16T14:17:14;5.30;;;1.73;;
5823;SDS011;2938;52.254;12.988;2022-10-16T14:19:45;1.17;;;0.70;;
5823;SDS011;2938;52.254;12.988;2022-10-16T14:22:28;2.50;;;0.68;;
5823;SDS011;2938;52.254;12.988;2022-10-16T14:25:01;0.65;;;0.65;;
5823;SDS011;2938;52.254;12.988;2022-10-16T14:27:31;2.72;;;0.95;;
5823;SDS011;2938;52.254;12.988;2022-10-16T14:32:32;1.38;;;0.80;;
5823;SDS011;2938;52.254;12.988;2022-10-16T14:34:58;0.60;;;0.60;;
5823;SDS011;2938;52.254;12.988;2022-10-16T14:37:27;0.83;;;0.70;;
5823;SDS011;2938;52.254;12.988;2022-10-16T14:39:54;2.28;;;0.80;;
5823;SDS011;2938;52.254;12.988;2022-10-16T14:42:20;1.75;;;1.17;;
5823;SDS011;2938;52.254;12.988;2022-10-16T14:44:49;5.55;;;1.20;;
5823;SDS011;2938;52.254;12.988;2022-10-16T14:47:18;3.15;;;1.80;;
5823;SDS011;2938;52.254;12.988;2022-10-16T14:49:49;1.90;;;1.02;;
5823;SDS011;2938;52.254;12.988;2022-10-16T14:52:15;5.65;;;1.35;;
5823;SDS011;2938;52.254;12.988;2022-10-16T14:54:41;1.70;;;0.77;;
5823;SDS011;2938;52.254;12.988;2022-10-16T14:57:15;1.83;;;1.00;;
5823;SDS011;2938;52.254;12.988;2022-10-16T14:59:42;1.20;;;1.10;;
5823;SDS011;2938;52.254;12.988;2022-10-16T15:02:16;1.52;;;0.70;;
5823;SDS011;2938;52.254;12.988;2022-10-16T15:04:46;1.50;;;0.82;;
5823;SDS011;2938;52.254;12.988;2022-10-16T15:07:11;1.83;;;0.80;;
5823;SDS011;2938;52.254;12.988;2022-10-16T15:09:37;1.90;;;0.60;;
5823;SDS011;2938;52.254;12.988;2022-10-16T15:12:02;1.70;;;1.00;;
5823;SDS011;2938;52.254;12.988;2022-10-16T15:14:27;0.70;;;0.60;;
5823;SDS011;2938;52.254;12.988;2022-10-16T15:16:53;1.70;;;0.93;;
5823;SDS011;2938;52.254;12.988;2022-10-16T15:19:18;4.22;;;0.68;;
5823;SDS011;2938;52.254;12.988;2022-10-16T15:21:43;3.33;;;0.83;;
5823;SDS011;2938;52.254;12.988;2022-10-16T15:24:09;4.35;;;1.23;;
5823;SDS011;2938;52.254;12.988;2022-10-16T15:26:37;4.03;;;1.00;;
5823;SDS011;2938;52.254;12.988;2022-10-16T15:29:02;0.43;;;0.40;;
5823;SDS011;2938;52.254;12.988;2022-10-16T15:31:27;2.13;;;0.63;;
5823;SDS011;2938;52.254;12.988;2022-10-16T15:33:53;0.55;;;0.52;;
5823;SDS011;2938;52.254;12.988;2022-10-16T15:36:33;0.93;;;0.75;;
5823;SDS011;2938;52.254;12.988;2022-10-16T15:39:01;0.82;;;0.82;;
5823;SDS011;2938;52.254;12.988;2022-10-16T15:41:27;1.08;;;1.05;;
5823;SDS011;2938;52.254;12.988;2022-10-16T15:43:53;1.35;;;0.75;;
5823;SDS011;2938;52.254;12.988;2022-10-16T15:46:19;3.75;;;0.60;;
5823;SDS011;2938;52.254;12.988;2022-10-16T15:48:46;3.97;;;0.90;;
5823;SDS011;2938;52.254;12.988;2022-10-16T15:51:12;4.65;;;0.80;;
5823;SDS011;2938;52.254;12.988;2022-10-16T15:53:37;4.90;;;1.67;;
5823;SDS011;2938;52.254;12.988;2022-10-16T15:56:03;1.40;;;1.15;;
5823;SDS011;2938;52.254;12.988;2022-10-16T15:58:32;2.92;;;2.00;;
5823;SDS011;2938;52.254;12.988;2022-10-16T16:01:00;6.45;;;3.60;;
5823;SDS011;2938;52.254;12.988;2022-10-16T16:03:27;5.50;;;3.08;;
5823;SDS011;2938;52.254;12.988;2022-10-16T16:05:52;3.72;;;3.20;;
5823;SDS011;2938;52.254;12.988;2022-10-16T16:08:18;6.55;;;3.80;;
5823;SDS011;2938;52.254;12.988;2022-10-16T16:10:43;3.42;;;1.85;;
5823;SDS011;2938;52.254;12.988;2022-10-16T16:13:08;1.88;;;0.77;;
5823;SDS011;2938;52.254;12.988;2022-10-16T16:15:34;3.75;;;1.08;;
5823;SDS011;2938;52.254;12.988;2022-10-16T16:17:59;4.85;;;1.55;;
5823;SDS011;2938;52.254;12.988;2022-10-16T16:20:27;1.15;;;0.95;;
5823;SDS011;2938;52.254;12.988;2022-10-16T16:22:52;2.63;;;1.00;;
5823;SDS011;2938;52.254;12.988;2022-10-16T16:25:17;6.07;;;1.55;;
5823;SDS011;2938;52.254;12.988;2022-10-16T16:27:43;3.38;;;1.65;;
5823;SDS011;2938;52.254;12.988;2022-10-16T16:30:10;1.27;;;1.15;;
5823;SDS011;2938;52.254;12.988;2022-10-16T16:32:35;6.85;;;1.20;;
5823;SDS011;2938;52.254;12.988;2022-10-16T16:35:01;1.45;;;1.00;;
5823;SDS011;2938;52.254;12.988;2022-10-16T16:37:27;0.80;;;0.80;;
5823;SDS011;2938;52.254;12.988;2022-10-16T16:39:52;2.20;;;0.80;;
5823;SDS011;2938;52.254;12.988;2022-10-16T16:42:19;2.92;;;0.90;;
5823;SDS011;2938;52.254;12.988;2022-10-16T16:44:45;6.53;;;1.63;;
5823;SDS011;2938;52.254;12.988;2022-10-16T16:47:12;6.50;;;1.10;;
5823;SDS011;2938;52.254;12.988;2022-10-16T16:49:37;19.42;;;2.95;;
5823;SDS011;2938;52.254;12.988;2022-10-16T16:52:03;2.50;;;1.40;;
5823;SDS011;2938;52.254;12.988;2022-10-16T16:54:28;4.70;;;1.95;;
5823;SDS011;2938;52.254;12.988;2022-10-16T16:56:54;4.82;;;1.27;;
5823;SDS011;2938;52.254;12.988;2022-10-16T16:59:19;1.10;;;1.00;;